Time;durP1;ratioP1;P1;durP2;ratioP2;P2;SDS_P1;SDS_P2;PMS_P1;PMS_P2;Temp;Humidity;BMP_temperature;BMP_pressure;BME280_temperature;BME280_humidity;BME280_pressure;Samples;Min_cycle;Max_cycle;Signal;HPM_P1;HPM_P2
2023/11/23 00:00:31;;;;;;;22.00;10.70;;;;;;;-3.21;79.41;99760.03;78282;1298;3025297;-70
2023/11/23 00:02:57;;;;;;;20.80;11.60;;;;;;;-3.10;79.11;99754.05;79253;1296;3013394;-69
2023/11/23 00:05:24;;;;;;;19.10;9.70;;;;;;;-3.17;79.14;99760.73;79501;1301;3011949;-69
2023/11/23 00:07:52;;;;;;;16.10;9.20;;;;;;;-3.16;79.33;99758.15;78107;1302;3048967;-68
2023/11/23 00:10:19;;;;;;;17.30;10.20;;;;;;;-3.26;79.59;99756.61;79510;1300;3013298;-65
2023/11/23 00:12:45;;;;;;;20.10;9.00;;;;;;;-3.32;79.67;99753.36;79363;1300;3011599;-69
2023/11/23 00:15:13;;;;;;;17.30;9.00;;;;;;;-3.44;80.10;99756.77;78217;1300;3052373;-70
2023/11/23 00:17:40;;;;;;;16.30;8.70;;;;;;;-2.98;79.57;99760.88;79385;1300;3012834;-69
2023/11/23 00:20:09;;;;;;;16.00;8.40;;;;;;;-2.39;76.98;99753.91;79340;1297;3013101;-68
2023/11/23 00:22:37;;;;;;;17.60;8.70;;;;;;;-2.36;76.02;99748.58;78094;1300;3049611;-67
2023/11/23 00:25:05;;;;;;;16.40;8.30;;;;;;;-2.36;76.18;99736.75;79447;1301;3015428;-67
2023/11/23 00:27:34;;;;;;;19.30;8.10;;;;;;;-2.44;76.20;99728.88;79455;1298;3011681;-71
2023/11/23 00:30:02;;;;;;;18.30;9.30;;;;;;;-2.77;76.87;99733.42;78213;1300;3051423;-69
2023/11/23 00:32:29;;;;;;;18.00;9.30;;;;;;;-2.83;77.42;99731.03;79428;1300;3012869;-69
2023/11/23 00:34:55;;;;;;;17.50;8.60;;;;;;;-3.03;78.15;99725.91;79388;1311;3011818;-67
2023/11/23 00:37:23;;;;;;;16.50;9.20;;;;;;;-3.33;79.03;99728.69;78164;1301;3026271;-66
2023/11/23 00:39:50;;;;;;;18.20;9.70;;;;;;;-3.27;79.36;99718.40;79520;1297;3018664;-66
2023/11/23 00:42:17;;;;;;;17.70;9.00;;;;;;;-3.25;79.72;99720.11;79190;1300;3011906;-66
2023/11/23 00:44:45;;;;;;;17.70;10.20;;;;;;;-3.34;79.96;99716.17;78312;1300;3028124;-71
2023/11/23 00:47:11;;;;;;;16.80;8.90;;;;;;;-3.29;79.70;99709.84;79297;1300;3015914;-68
2023/11/23 00:49:38;;;;;;;17.80;10.40;;;;;;;-3.44;79.90;99707.61;79376;1300;3011928;-69
2023/11/23 00:52:07;;;;;;;16.70;9.00;;;;;;;-3.56;81.19;99705.55;78192;1300;3049855;-68
2023/11/23 00:54:38;;;;;;;14.70;9.10;;;;;;;-3.49;81.38;99705.39;79301;1303;3012945;-68
2023/11/23 00:57:06;;;;;;;13.20;6.90;;;;;;;-3.42;81.25;99702.30;78577;1300;3011560;-70
2023/11/23 00:59:33;;;;;;;17.20;9.30;;;;;;;-2.71;80.26;99698.24;79467;1297;3013476;-72
2023/11/23 01:02:01;;;;;;;15.10;8.00;;;;;;;-1.92;77.70;99694.13;79370;1301;3012759;-68
2023/11/23 01:04:29;;;;;;;15.30;8.30;;;;;;;-1.91;75.60;99695.68;78136;1311;3049524;-69
2023/11/23 01:06:56;;;;;;;16.40;9.10;;;;;;;-2.13;76.09;99691.84;79398;1297;3013059;-71
2023/11/23 01:09:24;;;;;;;18.30;8.30;;;;;;;-2.33;76.40;99694.70;79408;1300;3011682;-73
2023/11/23 01:11:52;;;;;;;17.80;9.60;;;;;;;-2.65;76.99;99693.27;78021;1300;3053503;-71
2023/11/23 01:14:18;;;;;;;18.50;9.30;;;;;;;-2.79;77.32;99693.31;79447;1300;3012918;-71
2023/11/23 01:16:46;;;;;;;14.90;9.20;;;;;;;-2.85;77.39;99692.12;79204;1299;3011648;-71
2023/11/23 01:19:13;;;;;;;12.80;7.20;;;;;;;-3.04;77.28;99693.88;78183;1296;3026202;-66
2023/11/23 01:21:40;;;;;;;13.40;7.30;;;;;;;-3.23;77.46;99701.61;79174;1304;3013546;-65
2023/11/23 01:24:08;;;;;;;15.00;7.70;;;;;;;-3.31;77.60;99708.46;79401;1300;3011806;-65
2023/11/23 01:26:36;;;;;;;11.40;6.80;;;;;;;-3.33;77.72;99723.20;78019;1309;3051894;-66
2023/11/23 01:29:03;;;;;;;11.70;6.40;;;;;;;-3.36;77.51;99725.95;79206;1307;3014157;-67
2023/11/23 01:31:30;;;;;;;10.90;5.80;;;;;;;-3.50;77.69;99715.66;79181;1302;3011865;-64
2023/11/23 01:33:59;;;;;;;8.30;5.00;;;;;;;-3.50;77.18;99721.31;77957;1297;3027924;-71
2023/11/23 01:36:27;;;;;;;8.60;4.80;;;;;;;-3.58;76.73;99722.67;79476;1295;3013448;-71
2023/11/23 01:38:56;;;;;;;10.10;4.80;;;;;;;-3.86;77.04;99721.95;78913;1302;3011803;-68
2023/11/23 01:41:23;;;;;;;9.50;4.90;;;;;;;-3.80;77.31;99719.39;79323;1309;3012833;-71
2023/11/23 01:43:51;;;;;;;8.90;4.90;;;;;;;-3.89;76.71;99717.14;79356;1302;3011458;-71
2023/11/23 01:46:20;;;;;;;7.40;4.50;;;;;;;-3.92;76.87;99714.92;78195;1300;3051493;-70
2023/11/23 01:48:46;;;;;;;8.90;5.30;;;;;;;-4.04;77.12;99713.18;79451;1298;3013622;-68
2023/11/23 01:51:13;;;;;;;10.40;5.70;;;;;;;-3.97;77.11;99709.95;79341;1302;3011653;-70
2023/11/23 01:53:41;;;;;;;8.10;4.50;;;;;;;-3.97;76.68;99717.98;77976;1303;3049488;-72
2023/11/23 01:56:09;;;;;;;7.70;4.30;;;;;;;-4.03;77.00;99715.07;79369;1302;3013352;-68
2023/11/23 01:58:36;;;;;;;10.00;4.80;;;;;;;-4.13;77.23;99720.85;79387;1311;3012169;-66
2023/11/23 02:01:04;;;;;;;7.10;4.50;;;;;;;-4.17;77.71;99720.32;78091;1302;3051993;-69
2023/11/23 02:03:32;;;;;;;8.30;4.50;;;;;;;-4.09;77.52;99715.90;79292;1299;3015007;-67
2023/11/23 02:05:59;;;;;;;7.70;3.80;;;;;;;-4.03;77.08;99718.49;79325;1297;3013214;-66
2023/11/23 02:08:28;;;;;;;10.90;4.90;;;;;;;-4.12;77.02;99717.27;78172;1302;3050134;-68
2023/11/23 02:10:56;;;;;;;8.50;5.00;;;;;;;-4.15;77.22;99720.67;79209;1300;3012697;-66
2023/11/23 02:13:23;;;;;;;9.20;4.60;;;;;;;-4.33;77.26;99713.59;79510;1298;3012707;-67
2023/11/23 02:15:51;;;;;;;10.10;4.90;;;;;;;-4.29;77.39;99728.84;77860;1303;3049674;-69
2023/11/23 02:18:17;;;;;;;8.70;5.20;;;;;;;-4.19;77.51;99713.48;79311;1297;3013325;-70
2023/11/23 02:20:46;;;;;;;6.40;3.90;;;;;;;-4.05;77.68;99714.55;79223;1300;3013253;-68
2023/11/23 02:23:14;;;;;;;9.60;5.00;;;;;;;-4.14;78.63;99713.49;78316;1297;3049553;-64
2023/11/23 02:25:42;;;;;;;5.10;3.50;;;;;;;-4.25;78.81;99719.61;79376;1300;3013670;-68
2023/11/23 02:28:09;;;;;;;7.70;4.00;;;;;;;-3.90;78.39;99725.01;79286;1301;3011597;-65
2023/11/23 02:30:37;;;;;;;6.20;3.50;;;;;;;-3.36;76.46;99717.55;77908;1300;3051604;-68
2023/11/23 02:33:07;;;;;;;8.00;4.40;;;;;;;-3.19;75.40;99722.34;79303;1297;3013586;-71
2023/11/23 02:35:35;;;;;;;12.40;3.90;;;;;;;-3.36;74.93;99728.85;77875;1296;3052907;-68
2023/11/23 02:38:02;;;;;;;10.30;4.40;;;;;;;-3.60;75.31;99738.44;79337;1300;3012976;-65
2023/11/23 02:40:29;;;;;;;9.70;5.10;;;;;;;-3.91;75.87;99737.67;79250;1301;3011899;-68
2023/11/23 02:42:57;;;;;;;9.40;4.50;;;;;;;-4.07;75.79;99737.47;78011;1300;3029185;-67
2023/11/23 02:45:24;;;;;;;6.20;3.40;;;;;;;-4.33;75.23;99730.36;79309;1299;3021270;-68
2023/11/23 02:47:52;;;;;;;7.30;4.00;;;;;;;-4.53;75.00;99734.03;79233;1298;3011587;-65
2023/11/23 02:50:21;;;;;;;8.90;4.20;;;;;;;-4.71;75.33;99729.33;78028;1300;3053200;-66
2023/11/23 02:53:27;;;;;;;7.40;4.10;;;;;;;-4.83;75.97;99723.96;77945;1298;3050337;-66
2023/11/23 02:55:56;;;;;;;8.90;4.50;;;;;;;-4.83;75.37;99726.17;78146;1300;3053040;-74
2023/11/23 02:58:22;;;;;;;12.00;5.70;;;;;;;-4.90;75.47;99737.07;79474;1300;3013915;-69
2023/11/23 03:00:51;;;;;;;6.70;3.70;;;;;;;-4.91;75.46;99740.83;79427;1296;3011527;-71
2023/11/23 03:03:18;;;;;;;5.00;3.00;;;;;;;-5.04;75.09;99738.69;78048;1297;3056025;-71
2023/11/23 03:05:45;;;;;;;7.20;3.70;;;;;;;-5.08;74.82;99735.08;79463;1298;3014712;-69
2023/11/23 03:08:12;;;;;;;7.50;4.00;;;;;;;-5.18;74.26;99736.37;79486;1297;3011556;-71
2023/11/23 03:10:40;;;;;;;4.80;3.40;;;;;;;-5.28;74.06;99746.88;78209;1301;3025973;-68
2023/11/23 03:13:07;;;;;;;8.60;4.30;;;;;;;-5.18;73.91;99742.34;79229;1297;3020920;-72
2023/11/23 03:15:35;;;;;;;8.40;4.20;;;;;;;-5.18;74.01;99743.02;79327;1297;3011862;-66
2023/11/23 03:18:04;;;;;;;6.90;4.10;;;;;;;-5.19;73.44;99739.27;78061;1300;3056279;-67
2023/11/23 03:20:31;;;;;;;8.00;3.90;;;;;;;-5.18;73.06;99735.34;79279;1298;3013363;-73
2023/11/23 03:22:57;;;;;;;6.80;4.00;;;;;;;-5.29;72.55;99736.46;79251;1297;3012970;-67
2023/11/23 03:25:26;;;;;;;6.40;4.00;;;;;;;-5.21;71.85;99731.21;78030;1300;3052521;-64
2023/11/23 03:27:53;;;;;;;5.60;3.50;;;;;;;-5.33;71.55;99734.20;79173;1300;3013075;-64
2023/11/23 03:30:19;;;;;;;6.60;4.20;;;;;;;-5.30;71.52;99733.36;79232;1297;3013287;-66
2023/11/23 03:32:49;;;;;;;7.90;4.60;;;;;;;-5.33;71.73;99737.78;78079;1296;3056292;-65
2023/11/23 03:35:15;;;;;;;6.40;3.80;;;;;;;-5.32;71.40;99738.31;79216;1299;3012867;-68
2023/11/23 03:37:42;;;;;;;5.70;3.80;;;;;;;-5.30;71.12;99736.61;79218;1301;3011720;-67
2023/11/23 03:40:11;;;;;;;8.50;4.20;;;;;;;-5.24;71.25;99728.30;78084;1300;3052673;-63
2023/11/23 03:42:39;;;;;;;7.00;4.40;;;;;;;-5.22;70.95;99733.95;79467;1300;3013533;-67
2023/11/23 03:45:06;;;;;;;7.70;4.20;;;;;;;-5.13;70.57;99733.50;79263;1298;3012984;-68
2023/11/23 03:47:34;;;;;;;6.20;4.10;;;;;;;-5.26;70.81;99738.69;77824;1300;3056774;-66
2023/11/23 03:50:01;;;;;;;8.60;4.30;;;;;;;-5.23;71.39;99739.05;79186;1297;3013266;-67
2023/11/23 03:52:28;;;;;;;8.50;4.50;;;;;;;-5.17;71.05;99733.64;79204;1300;3011757;-69
2023/11/23 03:54:58;;;;;;;10.80;5.50;;;;;;;-5.26;71.03;99730.50;78115;1300;3026790;-67
2023/11/23 03:57:24;;;;;;;7.50;4.60;;;;;;;-5.38;71.13;99720.84;79431;1300;3013248;-69
2023/11/23 03:59:51;;;;;;;9.10;4.80;;;;;;;-5.36;70.89;99728.20;79142;1298;3012820;-68
2023/11/23 04:02:19;;;;;;;11.30;6.10;;;;;;;-5.41;71.28;99734.14;78076;1300;3056484;-70
2023/11/23 04:04:46;;;;;;;9.70;6.30;;;;;;;-5.37;71.53;99742.03;79288;1297;3021350;-70
2023/11/23 04:07:13;;;;;;;10.50;5.30;;;;;;;-5.48;71.74;99752.35;79237;1297;3013226;-68
2023/11/23 04:09:41;;;;;;;10.00;4.90;;;;;;;-5.42;71.65;99754.62;78031;1300;3026120;-70
2023/11/23 04:12:07;;;;;;;7.60;4.60;;;;;;;-5.59;71.64;99759.59;79217;1300;3013521;-65
2023/11/23 04:14:34;;;;;;;6.50;4.40;;;;;;;-5.53;71.49;99756.23;79307;1297;3011833;-66
2023/11/23 04:17:02;;;;;;;5.20;3.30;;;;;;;-5.76;71.65;99760.43;78105;1300;3025994;-67
2023/11/23 04:19:30;;;;;;;6.30;3.60;;;;;;;-5.75;71.72;99751.59;79093;1297;3013595;-67
2023/11/23 04:21:59;;;;;;;7.10;4.00;;;;;;;-5.89;71.07;99764.56;79150;1297;3011865;-67
2023/11/23 04:24:27;;;;;;;8.40;4.60;;;;;;;-5.96;70.74;99761.27;78136;1300;3051648;-69
2023/11/23 04:26:54;;;;;;;7.30;4.10;;;;;;;-5.99;70.10;99758.15;79275;1300;3018928;-72
2023/11/23 04:29:21;;;;;;;4.90;3.50;;;;;;;-6.07;69.06;99765.25;79129;1300;3013191;-67
2023/11/23 04:31:48;;;;;;;6.90;4.20;;;;;;;-6.18;68.91;99758.48;78066;1300;3028259;-66
2023/11/23 04:34:16;;;;;;;5.40;3.00;;;;;;;-6.03;68.27;99769.56;79231;1298;3013094;-65
2023/11/23 04:36:43;;;;;;;9.20;3.80;;;;;;;-6.26;67.95;99764.01;79274;1295;3013454;-66
2023/11/23 04:39:12;;;;;;;7.10;4.00;;;;;;;-6.46;68.78;99768.19;78072;1300;3026350;-67
2023/11/23 04:41:39;;;;;;;5.30;3.80;;;;;;;-6.48;69.08;99784.86;79168;1300;3013265;-67
2023/11/23 04:44:06;;;;;;;7.00;4.40;;;;;;;-6.50;69.70;99791.83;79216;1298;3011952;-64
2023/11/23 04:46:34;;;;;;;5.00;3.50;;;;;;;-6.66;70.16;99806.25;78119;1300;3056536;-68
2023/11/23 04:49:00;;;;;;;5.10;3.30;;;;;;;-6.71;70.35;99799.89;79257;1300;3013819;-67
2023/11/23 04:51:27;;;;;;;6.40;3.80;;;;;;;-6.73;70.58;99796.45;79382;1297;3011594;-66
2023/11/23 04:53:56;;;;;;;5.40;3.40;;;;;;;-6.65;70.17;99789.75;77990;1300;3027087;-65
2023/11/23 04:56:23;;;;;;;6.80;3.90;;;;;;;-6.72;70.39;99786.41;79442;1300;3013460;-67
2023/11/23 04:58:50;;;;;;;10.20;5.30;;;;;;;-6.78;70.62;99773.70;79196;1300;3011779;-70
2023/11/23 05:01:18;;;;;;;7.80;4.70;;;;;;;-6.74;70.07;99761.85;78256;1300;3056353;-68
2023/11/23 05:03:45;;;;;;;8.80;4.20;;;;;;;-6.65;69.82;99758.21;79462;1297;3013163;-68
2023/11/23 05:06:13;;;;;;;5.70;3.30;;;;;;;-6.67;70.17;99762.11;79350;1297;3011758;-70
2023/11/23 05:08:42;;;;;;;6.20;3.90;;;;;;;-6.78;70.50;99767.41;78219;1300;3052116;-68
2023/11/23 05:11:09;;;;;;;6.60;4.30;;;;;;;-6.80;70.85;99764.99;79309;1297;3014681;-69
2023/11/23 05:13:36;;;;;;;6.50;4.10;;;;;;;-6.75;70.70;99772.23;79230;1298;3013177;-69
2023/11/23 05:16:05;;;;;;;6.60;4.30;;;;;;;-6.84;70.67;99771.94;78066;1296;3055707;-67
2023/11/23 05:18:32;;;;;;;5.40;3.40;;;;;;;-6.65;70.68;99765.04;79387;1296;3013556;-69
2023/11/23 05:20:59;;;;;;;6.80;4.00;;;;;;;-6.61;70.45;99769.17;79332;1297;3011372;-68
2023/11/23 05:23:27;;;;;;;6.40;4.00;;;;;;;-6.71;70.99;99770.40;78103;1300;3051505;-69
2023/11/23 05:25:54;;;;;;;13.50;5.00;;;;;;;-6.79;71.29;99768.77;79306;1298;3018920;-70
2023/11/23 05:28:21;;;;;;;5.10;3.60;;;;;;;-6.67;71.31;99774.72;79351;1302;3011720;-68
2023/11/23 05:30:49;;;;;;;6.50;4.50;;;;;;;-6.66;71.08;99787.34;78100;1302;3057402;-68
2023/11/23 05:33:16;;;;;;;9.50;4.70;;;;;;;-6.62;71.33;99782.46;79478;1302;3012973;-70
2023/11/23 05:35:42;;;;;;;7.90;4.50;;;;;;;-6.66;71.16;99785.98;79372;1298;3011423;-68
2023/11/23 05:38:10;;;;;;;10.20;5.70;;;;;;;-6.61;71.45;99786.73;78153;1300;3026565;-70
2023/11/23 05:40:37;;;;;;;10.30;5.60;;;;;;;-6.50;71.35;99792.34;79370;1298;3013366;-69
2023/11/23 05:43:03;;;;;;;11.90;5.40;;;;;;;-6.54;71.16;99789.39;79336;1297;3013596;-70
2023/11/23 05:45:32;;;;;;;12.10;5.60;;;;;;;-6.56;70.92;99791.91;78145;1300;3026693;-69
2023/11/23 05:47:58;;;;;;;8.70;4.80;;;;;;;-6.54;71.14;99779.84;79368;1297;3014424;-67
2023/11/23 05:50:25;;;;;;;13.80;6.90;;;;;;;-6.51;70.79;99780.06;79314;1297;3011900;-73
2023/11/23 05:52:55;;;;;;;12.20;6.30;;;;;;;-6.36;70.76;99789.28;78144;1297;3052515;-71
2023/11/23 05:55:21;;;;;;;14.30;7.80;;;;;;;-6.43;69.64;99792.27;79400;1299;3013634;-69
2023/11/23 05:57:48;;;;;;;16.20;7.50;;;;;;;-6.50;69.50;99792.34;79329;1297;3013428;-67
2023/11/23 06:00:16;;;;;;;17.80;6.60;;;;;;;-6.64;69.76;99793.66;78199;1300;3029106;-71
2023/11/23 06:02:44;;;;;;;13.80;6.70;;;;;;;-6.68;69.24;99793.63;79427;1296;3013566;-67
2023/11/23 06:05:11;;;;;;;13.80;5.50;;;;;;;-6.39;69.02;99799.80;79379;1297;3011637;-69
2023/11/23 06:07:39;;;;;;;16.40;7.30;;;;;;;-6.38;67.89;99808.52;78163;1300;3052419;-71
2023/11/23 06:10:07;;;;;;;11.70;5.30;;;;;;;-6.35;66.77;99806.87;79552;1299;3020757;-69
2023/11/23 06:12:35;;;;;;;14.40;5.00;;;;;;;-6.25;66.61;99811.42;79330;1296;3012015;-67
2023/11/23 06:15:05;;;;;;;10.00;4.50;;;;;;;-6.31;66.66;99807.41;78209;1297;3056104;-69
2023/11/23 06:17:32;;;;;;;6.60;4.10;;;;;;;-6.16;66.93;99807.77;79472;1297;3012091;-71
2023/11/23 06:19:59;;;;;;;5.60;3.50;;;;;;;-6.22;67.67;99811.27;79447;1299;3013113;-67
2023/11/23 06:22:27;;;;;;;6.10;3.60;;;;;;;-6.18;67.69;99806.37;78113;1303;3051853;-71
2023/11/23 06:24:54;;;;;;;5.00;3.10;;;;;;;-6.21;67.51;99812.33;79441;1297;3013450;-71
2023/11/23 06:27:21;;;;;;;5.60;2.90;;;;;;;-6.22;68.16;99817.77;79408;1302;3011714;-74
2023/11/23 06:29:49;;;;;;;6.40;3.10;;;;;;;-6.15;67.72;99814.80;78291;1300;3056463;-70
2023/11/23 06:32:17;;;;;;;7.20;3.40;;;;;;;-5.98;67.78;99807.30;79333;1297;3013375;-71
2023/11/23 06:34:43;;;;;;;5.30;3.60;;;;;;;-6.17;67.93;99818.17;79476;1295;3011678;-69
2023/11/23 06:37:11;;;;;;;4.80;3.20;;;;;;;-6.10;67.94;99818.27;78353;1298;3052725;-69
2023/11/23 06:39:38;;;;;;;7.50;3.90;;;;;;;-6.07;67.64;99821.38;79466;1297;3013073;-69
2023/11/23 06:42:04;;;;;;;6.60;3.40;;;;;;;-6.03;67.29;99821.75;79437;1295;3011749;-67
2023/11/23 06:44:32;;;;;;;5.50;3.30;;;;;;;-6.01;67.37;99807.29;78139;1300;3028259;-68
2023/11/23 06:47:00;;;;;;;10.30;4.10;;;;;;;-5.94;67.46;99791.64;79447;1298;3021245;-71
2023/11/23 06:49:27;;;;;;;7.70;4.20;;;;;;;-5.79;66.22;99791.64;79563;1297;3011764;-70
2023/11/23 06:51:55;;;;;;;7.30;4.10;;;;;;;-5.90;65.41;99783.83;78419;1297;3053607;-68
2023/11/23 06:54:22;;;;;;;7.90;3.60;;;;;;;-5.91;65.32;99783.15;79491;1300;3013114;-67
2023/11/23 06:56:48;;;;;;;10.20;4.30;;;;;;;-5.66;65.33;99781.88;79338;1296;3011873;-69
2023/11/23 06:59:18;;;;;;;8.50;4.00;;;;;;;-5.65;64.68;99783.77;78125;1303;3024721;-66
2023/11/23 07:01:45;;;;;;;5.40;2.90;;;;;;;-5.94;64.12;99795.23;79340;1296;3013620;-67
2023/11/23 07:04:14;;;;;;;4.70;2.50;;;;;;;-6.13;64.42;99798.77;78951;1300;3011943;-68
2023/11/23 07:06:41;;;;;;;5.00;2.70;;;;;;;-6.30;64.75;99795.33;79573;1310;3013446;-68
2023/11/23 07:09:08;;;;;;;8.80;3.40;;;;;;;-6.16;64.84;99783.21;79374;1297;3011305;-68
2023/11/23 07:11:38;;;;;;;7.90;3.50;;;;;;;-6.05;64.59;99785.23;78079;1297;3068507;-70
2023/11/23 07:14:06;;;;;;;8.80;4.00;;;;;;;-5.89;64.23;99780.78;79545;1297;3013171;-68
2023/11/23 07:16:32;;;;;;;6.90;3.90;;;;;;;-5.79;64.18;99778.15;79416;1297;3013448;-69
2023/11/23 07:19:00;;;;;;;8.70;3.90;;;;;;;-5.80;63.96;99772.16;78158;1297;3052369;-68
2023/11/23 07:21:28;;;;;;;3.60;2.20;;;;;;;-5.79;63.87;99775.77;79393;1296;3013355;-68
2023/11/23 07:23:54;;;;;;;10.30;3.70;;;;;;;-6.13;63.22;99775.08;79520;1300;3011933;-70
2023/11/23 07:26:22;;;;;;;4.90;2.50;;;;;;;-5.92;63.17;99777.68;78324;1300;3068821;-67
2023/11/23 07:28:49;;;;;;;9.20;3.60;;;;;;;-5.84;62.58;99784.92;79466;1296;3013132;-70
2023/11/23 07:31:16;;;;;;;8.10;3.30;;;;;;;-5.53;62.84;99782.68;79389;1297;3011915;-68
2023/11/23 07:33:45;;;;;;;9.70;4.20;;;;;;;-5.43;61.92;99783.13;78181;1300;3028115;-69
2023/11/23 07:36:12;;;;;;;6.30;3.60;;;;;;;-5.55;61.86;99780.27;79488;1298;3012735;-70
2023/11/23 07:38:39;;;;;;;6.20;3.30;;;;;;;-5.72;61.64;99780.27;79385;1296;3013027;-67
2023/11/23 07:41:10;;;;;;;7.20;3.80;;;;;;;-5.88;62.32;99777.39;78113;1297;3068854;-71
2023/11/23 07:43:37;;;;;;;8.10;3.70;;;;;;;-5.88;62.30;99781.65;79502;1296;3013554;-71
2023/11/23 07:46:06;;;;;;;6.20;3.40;;;;;;;-5.73;62.48;99789.98;78864;1300;3013273;-68
2023/11/23 07:48:33;;;;;;;11.50;5.30;;;;;;;-5.82;62.89;99795.02;79456;1296;3019183;-69
2023/11/23 07:50:59;;;;;;;13.30;5.70;;;;;;;-5.61;62.76;99785.34;79334;1297;3011479;-70
2023/11/23 07:53:30;;;;;;;13.20;5.40;;;;;;;-5.36;62.51;99778.41;78131;1300;3026303;-68
2023/11/23 07:55:57;;;;;;;14.30;5.70;;;;;;;-5.11;61.95;99772.45;79528;1296;3011918;-71
2023/11/23 07:58:26;;;;;;;19.30;6.90;;;;;;;-5.12;61.73;99756.91;78815;1300;3011571;-71
2023/11/23 08:00:52;;;;;;;14.10;6.60;;;;;;;-5.06;62.05;99752.84;79355;1295;3011637;-68
2023/11/23 08:03:19;;;;;;;21.80;6.70;;;;;;;-5.13;61.55;99752.11;79372;1299;3011649;-71
2023/11/23 08:05:47;;;;;;;18.10;7.30;;;;;;;-5.17;61.32;99749.35;78175;1297;3026607;-69
2023/11/23 08:08:14;;;;;;;21.20;8.20;;;;;;;-5.11;61.80;99749.06;79340;1303;3013049;-71
2023/11/23 08:10:41;;;;;;;18.10;6.80;;;;;;;-4.99;61.58;99746.76;79318;1297;3011655;-71
2023/11/23 08:13:09;;;;;;;18.10;7.00;;;;;;;-5.22;61.04;99742.66;78198;1296;3026322;-76
2023/11/23 08:15:36;;;;;;;17.30;7.10;;;;;;;-5.20;61.64;99732.08;79410;1302;3013748;-71
2023/11/23 08:18:03;;;;;;;15.70;5.90;;;;;;;-5.10;61.01;99725.48;76806;1297;3608243;-71
2023/11/23 08:20:32;;;;;;;12.60;5.00;;;;;;;-5.06;60.59;99725.18;78833;1297;3013191;-71
2023/11/23 08:22:58;;;;;;;13.10;5.30;;;;;;;-4.96;60.36;99727.81;79370;1302;3013724;-71
2023/11/23 08:25:25;;;;;;;11.90;5.30;;;;;;;-4.78;60.10;99725.52;79393;1302;3011616;-71
2023/11/23 08:27:53;;;;;;;7.50;4.00;;;;;;;-4.70;59.59;99724.89;78229;1297;3026464;-70
2023/11/23 08:30:21;;;;;;;7.90;4.10;;;;;;;-4.80;59.18;99731.14;79513;1297;3013442;-71
2023/11/23 08:32:48;;;;;;;8.40;4.80;;;;;;;-5.06;59.84;99720.91;79462;1302;3012148;-73
2023/11/23 08:35:16;;;;;;;12.80;5.60;;;;;;;-4.91;59.61;99713.14;78309;1298;3053406;-73
2023/11/23 08:37:43;;;;;;;15.10;6.20;;;;;;;-4.80;59.46;99707.74;79480;1301;3018691;-75
2023/11/23 08:40:25;;;;;;;13.40;6.20;;;;;;;-4.60;59.07;99698.27;79420;1303;3011749;-71
2023/11/23 08:43:06;;;;;;;11.40;5.90;;;;;;;-4.45;58.66;99701.41;78326;1301;3068789;-70
2023/11/23 08:45:38;;;;;;;11.50;5.30;;;;;;;-4.28;58.41;99694.63;78241;1300;3051146;-75
2023/11/23 08:48:08;;;;;;;12.60;5.70;;;;;;;-4.18;58.00;99682.85;79398;1296;3015175;-77
2023/11/23 08:50:36;;;;;;;12.70;5.40;;;;;;;-4.11;57.34;99677.91;78185;1300;3052434;-71
2023/11/23 08:53:09;;;;;;;13.00;6.00;;;;;;;-3.95;56.62;99669.73;79501;1296;3013852;-68
2023/11/23 08:55:40;;;;;;;9.30;5.00;;;;;;;-3.90;56.30;99667.16;78325;1301;3052485;-70
2023/11/23 08:58:16;;;;;;;11.50;5.50;;;;;;;-3.87;56.27;99661.87;79434;1297;3013009;-69
2023/11/23 09:00:44;;;;;;;11.50;5.00;;;;;;;-3.73;56.51;99656.74;78307;1298;3056934;-71
2023/11/23 09:03:11;;;;;;;13.00;5.80;;;;;;;-3.79;56.16;99648.52;79514;1298;3014777;-75
2023/11/23 09:09:24;;;;;;;10.50;4.60;;;;;;;-3.41;56.31;99614.79;78217;1299;3052212;-74
2023/11/23 09:11:51;;;;;;;16.40;6.00;;;;;;;-3.51;55.70;99616.16;79585;1297;3011668;-69
2023/11/23 09:14:27;;;;;;;12.60;5.40;;;;;;;-3.61;55.64;99607.08;78259;1297;3068597;-70
2023/11/23 09:17:35;;;;;;;9.50;4.60;;;;;;;-3.70;55.74;99599.73;78261;1299;3051687;-70
2023/11/23 09:20:25;;;;;;;8.10;4.30;;;;;;;-3.78;56.12;99596.84;78321;1296;3056483;-68
2023/11/23 09:22:54;;;;;;;7.80;3.80;;;;;;;-3.69;56.26;99586.55;78097;1300;3049939;-69
2023/11/23 09:25:21;;;;;;;10.10;4.50;;;;;;;-3.59;56.28;99580.21;79403;1297;3013173;-70
2023/11/23 09:27:49;;;;;;;6.30;4.40;;;;;;;-3.33;56.22;99577.75;79388;1297;3011878;-69
2023/11/23 09:30:17;;;;;;;5.80;3.80;;;;;;;-3.28;55.67;99576.71;78217;1297;3052140;-70
2023/11/23 09:32:44;;;;;;;9.50;4.50;;;;;;;-3.20;55.22;99570.88;79440;1297;3013116;-68
2023/11/23 09:35:11;;;;;;;8.30;4.30;;;;;;;-3.23;55.39;99569.67;79363;1299;3013269;-69
2023/11/23 09:39:45;;;;;;;7.60;4.90;;;;;;;-3.13;55.93;99568.80;79791;1302;3013413;-66
2023/11/23 09:42:13;;;;;;;9.50;5.00;;;;;;;-2.93;55.48;99564.61;79194;1304;3013058;-69
2023/11/23 09:44:42;;;;;;;6.50;4.30;;;;;;;-2.92;55.65;99558.77;78507;1304;3011571;-67
2023/11/23 09:47:09;;;;;;;8.30;5.00;;;;;;;-2.83;55.93;99552.05;79008;1307;3012846;-66
2023/11/23 09:49:37;;;;;;;8.20;4.50;;;;;;;-2.90;54.95;99557.73;79121;1301;3011924;-69
2023/11/23 09:52:05;;;;;;;6.60;3.70;;;;;;;-2.97;55.25;99546.80;76471;1298;3512799;-72
2023/11/23 09:54:33;;;;;;;9.50;4.60;;;;;;;-2.91;55.07;99541.96;78361;1304;3049817;-71
2023/11/23 09:57:00;;;;;;;10.10;5.20;;;;;;;-3.21;55.47;99536.27;79566;1301;3013625;-68
2023/11/23 09:59:27;;;;;;;9.50;4.80;;;;;;;-2.94;55.07;99526.21;79548;1301;3011587;-70
2023/11/23 10:02:03;;;;;;;10.40;5.70;;;;;;;-3.13;54.97;99528.86;78076;1309;3026655;-72
2023/11/23 10:04:32;;;;;;;9.60;5.80;;;;;;;-2.97;55.89;99527.42;78118;1298;3068512;-68
2023/11/23 10:06:58;;;;;;;11.30;5.70;;;;;;;-2.98;55.94;99527.95;79339;1301;3013551;-75
2023/11/23 10:09:26;;;;;;;9.70;5.40;;;;;;;-2.94;55.30;99531.18;79374;1298;3012194;-71
2023/11/23 10:11:56;;;;;;;9.70;5.10;;;;;;;-3.10;55.36;99535.54;78201;1297;3052484;-68
2023/11/23 10:14:22;;;;;;;10.30;5.20;;;;;;;-3.56;56.97;99544.75;79476;1301;3016066;-71
2023/11/23 10:16:49;;;;;;;10.70;5.50;;;;;;;-3.82;57.83;99541.36;79466;1301;3012655;-71
2023/11/23 10:19:21;;;;;;;9.10;4.50;;;;;;;-3.85;58.61;99539.66;78054;1298;3069017;-72
2023/11/23 10:21:48;;;;;;;8.60;4.90;;;;;;;-4.02;57.71;99538.83;79769;1294;3012970;-70
2023/11/23 10:24:16;;;;;;;19.00;5.60;;;;;;;-3.89;58.52;99528.02;78497;1297;3026266;-71
2023/11/23 10:26:43;;;;;;;18.70;7.00;;;;;;;-3.71;58.08;99512.42;79773;1294;3012728;-67
2023/11/23 10:29:09;;;;;;;16.50;7.60;;;;;;;-3.75;58.41;99500.27;79796;1296;3011495;-67
2023/11/23 10:31:37;;;;;;;15.50;7.20;;;;;;;-3.88;59.12;99496.36;78217;1298;3026506;-68
2023/11/23 10:34:04;;;;;;;16.90;7.80;;;;;;;-4.06;59.71;99497.58;79699;1294;3021469;-72
2023/11/23 10:36:31;;;;;;;18.50;7.70;;;;;;;-4.39;60.78;99499.13;79669;1297;3011762;-71
2023/11/23 10:38:59;;;;;;;18.80;8.70;;;;;;;-4.46;61.61;99497.77;78223;1298;3025920;-69
2023/11/23 10:41:26;;;;;;;19.70;8.60;;;;;;;-4.41;62.22;99484.92;79540;1295;3013497;-71
2023/11/23 10:43:52;;;;;;;15.00;8.30;;;;;;;-4.31;61.25;99470.04;79744;1294;3013247;-73
2023/11/23 10:46:20;;;;;;;24.70;9.60;;;;;;;-4.52;60.40;99462.35;78466;1298;3025879;-72
2023/11/23 10:48:47;;;;;;;19.80;8.30;;;;;;;-4.67;60.70;99459.61;79445;1295;3013119;-73
2023/11/23 10:51:14;;;;;;;23.40;9.60;;;;;;;-4.42;60.22;99445.26;79717;1297;3013206;-67
2023/11/23 10:53:42;;;;;;;13.80;6.80;;;;;;;-4.44;60.45;99440.30;78261;1297;3026559;-72
2023/11/23 10:56:20;;;;;;;14.40;7.10;;;;;;;-4.40;60.43;99440.98;79536;1294;3013143;-69
2023/11/23 10:58:50;;;;;;;10.20;5.90;;;;;;;-4.25;60.38;99448.31;78109;1297;3050646;-70
2023/11/23 11:01:21;;;;;;;10.40;5.20;;;;;;;-4.37;60.05;99453.80;79384;1301;3013033;-65
2023/11/23 11:03:49;;;;;;;18.90;7.80;;;;;;;-4.47;60.88;99461.84;78485;1294;3068976;-66
2023/11/23 11:06:17;;;;;;;15.60;6.80;;;;;;;-4.39;61.20;99460.48;79430;1294;3013409;-65
2023/11/23 11:08:47;;;;;;;15.40;6.10;;;;;;;-4.42;61.05;99452.77;79535;1294;3011493;-72
2023/11/23 11:11:18;;;;;;;10.40;4.30;;;;;;;-4.48;60.71;99452.78;78190;1298;3053845;-68
2023/11/23 11:13:44;;;;;;;10.70;4.10;;;;;;;-4.64;61.10;99442.69;79739;1295;3012857;-66
2023/11/23 11:16:12;;;;;;;6.60;3.60;;;;;;;-4.94;62.30;99437.17;79760;1295;3011780;-73
2023/11/23 11:18:40;;;;;;;8.50;5.60;;;;;;;-4.84;62.44;99427.96;78301;1295;3068396;-70
2023/11/23 11:21:11;;;;;;;10.20;5.30;;;;;;;-5.00;62.91;99416.84;79671;1293;3012881;-74
2023/11/23 11:23:40;;;;;;;10.20;5.60;;;;;;;-4.77;62.89;99401.65;78554;1294;3049389;-69